Time;durP1;ratioP1;P1;durP2;ratioP2;P2;SDS_P1;SDS_P2;PMS_P1;PMS_P2;Temp;Humidity;BMP_temperature;BMP_pressure;BME280_temperature;BME280_humidity;BME280_pressure;Samples;Min_cycle;Max_cycle;Signal;HPM_P1;HPM_P2
2021/09/26 00:01:20;;;;;;;5.15;4.65;;;13.90;99.90;;;14.55;100.00;95297.00;2282442;54;26168;-58
2021/09/26 00:04:06;;;;;;;8.75;4.57;;;14.00;99.90;;;14.56;100.00;95291.00;2267038;55;26142;-57
2021/09/26 00:06:53;;;;;;;5.55;4.87;;;14.10;99.90;;;14.56;100.00;95294.00;2481590;55;26155;-57
2021/09/26 00:09:39;;;;;;;5.72;4.78;;;14.10;99.90;;;14.57;100.00;95305.00;2262680;55;26106;-57
2021/09/26 00:12:25;;;;;;;6.65;5.10;;;14.10;99.90;;;14.71;100.00;95307.00;2488452;55;26226;-56
2021/09/26 00:15:19;;;;;;;5.45;4.95;;;14.10;99.90;;;14.70;100.00;95311.00;2266494;55;26214;-57
2021/09/26 00:18:05;;;;;;;6.87;5.03;;;14.10;99.90;;;14.58;100.00;95311.00;2495891;55;26155;-57
2021/09/26 00:20:52;;;;;;;7.05;4.62;;;14.00;99.90;;;14.51;100.00;95317.00;2266555;55;26118;-57
2021/09/26 00:26:36;;;;;;;5.37;4.87;;;14.00;99.90;;;14.57;100.00;95295.00;2228068;55;33833;-56
2021/09/26 00:29:23;;;;;;;6.80;4.53;;;13.90;99.90;;;14.42;100.00;95316.00;2219010;55;26209;-57
2021/09/26 00:32:10;;;;;;;11.05;5.00;;;13.90;99.90;;;14.42;100.00;95311.00;2209426;55;26171;-56
2021/09/26 00:34:56;;;;;;;5.28;4.60;;;13.90;99.90;;;14.41;100.00;95312.00;2210615;55;26231;-57
2021/09/26 00:37:43;;;;;;;7.12;4.75;;;13.90;99.90;;;14.40;100.00;95312.00;2210726;55;26802;-57
2021/09/26 00:40:30;;;;;;;6.30;4.53;;;13.80;99.90;;;14.37;100.00;95310.00;2422594;55;26577;-56
2021/09/26 00:43:17;;;;;;;6.93;4.93;;;13.80;99.90;;;14.34;100.00;95310.00;2210904;56;26135;-57
2021/09/26 00:46:05;;;;;;;5.30;4.80;;;13.80;99.90;;;14.40;100.00;95320.00;2428136;56;26163;-57
2021/09/26 00:48:51;;;;;;;5.72;5.15;;;13.90;99.90;;;14.41;100.00;95322.00;2210746;56;26159;-57
2021/09/26 00:51:38;;;;;;;9.13;4.93;;;13.90;99.90;;;14.33;100.00;95315.00;2428572;56;26198;-57
2021/09/26 00:54:25;;;;;;;7.55;4.80;;;13.90;99.90;;;14.35;100.00;95313.00;2225676;56;26249;-57
2021/09/26 00:57:12;;;;;;;8.32;4.70;;;13.90;99.90;;;14.33;100.00;95308.00;2233319;56;26258;-57
2021/09/26 00:59:59;;;;;;;6.72;5.35;;;13.90;99.90;;;14.34;100.00;95311.00;2234978;55;26146;-57
2021/09/26 01:02:46;;;;;;;4.97;4.47;;;13.90;99.90;;;14.34;100.00;95313.00;2250909;55;26102;-57
2021/09/26 01:05:32;;;;;;;4.97;4.47;;;13.90;99.90;;;14.36;100.00;95313.00;2488529;55;26100;-57
2021/09/26 01:08:32;;;;;;;5.85;4.35;;;13.90;99.90;;;14.30;100.00;95306.00;2260686;55;26188;-56
2021/09/26 01:11:38;;;;;;;5.93;3.80;;;13.90;99.90;;;14.33;100.00;95308.00;2260217;55;26276;-56
2021/09/26 01:17:36;;;;;;;6.87;4.65;;;13.90;99.90;;;13.82;100.00;95198.00;2388036;55;33398;-55
2021/09/26 01:20:42;;;;;;;4.50;4.10;;;13.90;99.90;;;14.36;100.00;95306.00;2148622;58;26174;-55
2021/09/26 01:24:07;;;;;;;4.72;4.32;;;13.90;99.90;;;14.32;100.00;95309.00;2140958;58;26218;-55
2021/09/26 01:30:20;;;;;;;4.90;4.40;;;13.90;99.90;;;14.51;100.00;95290.00;2266549;54;34530;-57
2021/09/26 01:36:19;;;;;;;6.03;5.40;;;13.90;99.90;;;14.56;100.00;95293.00;2216730;56;33449;-56
2021/09/26 01:39:11;;;;;;;6.45;5.07;;;13.90;99.90;;;14.40;100.00;95320.00;2414010;57;26222;-57
2021/09/26 01:45:06;;;;;;;7.68;5.20;;;13.90;99.90;;;14.46;100.00;95309.00;2251377;54;33547;-56
2021/09/26 01:47:59;;;;;;;6.70;5.05;;;13.90;99.90;;;14.33;100.00;95335.00;2488517;55;26579;-56
2021/09/26 01:50:50;;;;;;;4.95;4.45;;;13.90;99.90;;;14.37;100.00;95334.00;2257290;55;26565;-58
2021/09/26 01:53:42;;;;;;;5.60;4.85;;;13.80;99.90;;;14.32;100.00;95334.00;2526795;55;26734;-57
2021/09/26 01:56:30;;;;;;;5.00;4.45;;;13.80;99.90;;;14.38;100.00;95335.00;2278934;54;26103;-57
2021/09/26 01:59:19;;;;;;;6.15;4.97;;;13.80;99.90;;;14.34;100.00;95337.00;2264768;56;26107;-57
2021/09/26 02:02:06;;;;;;;10.30;4.72;;;13.80;99.90;;;14.31;100.00;95334.00;2480902;55;26092;-56
2021/09/26 02:04:59;;;;;;;5.10;4.60;;;13.70;99.90;;;14.28;100.00;95337.00;2264833;55;26102;-57
2021/09/26 02:07:48;;;;;;;5.65;4.40;;;13.70;99.90;;;14.25;100.00;95328.00;2494568;55;26111;-57
2021/09/26 02:10:37;;;;;;;5.35;4.70;;;13.70;99.90;;;14.24;100.00;95323.00;2266977;55;26091;-57
2021/09/26 02:13:24;;;;;;;5.45;4.90;;;13.70;99.90;;;14.11;100.00;95325.00;2495692;54;26541;-57
2021/09/26 02:16:11;;;;;;;5.03;4.50;;;13.60;99.90;;;14.08;100.00;95324.00;2265724;55;27000;-57
2021/09/26 02:18:59;;;;;;;7.13;4.80;;;13.60;99.90;;;14.06;100.00;95320.00;2266738;55;26659;-57
2021/09/26 02:21:47;;;;;;;4.95;4.45;;;13.50;99.90;;;14.02;100.00;95323.00;2495342;55;26189;-57
2021/09/26 02:24:36;;;;;;;6.50;4.68;;;13.50;99.90;;;13.92;100.00;95322.00;2265987;55;26161;-56
2021/09/26 02:27:22;;;;;;;6.78;4.43;;;13.40;99.90;;;13.82;100.00;95322.00;2263539;55;26550;-57
2021/09/26 02:33:07;;;;;;;5.12;4.50;;;13.30;99.90;;;13.91;100.00;95296.00;2224409;57;33814;-57
2021/09/26 02:35:54;;;;;;;4.93;4.40;;;13.30;99.90;;;13.77;100.00;95321.00;2219298;56;26069;-57
2021/09/26 02:38:42;;;;;;;6.03;4.35;;;13.30;99.90;;;13.72;100.00;95315.00;2209511;55;26221;-56
2021/09/26 02:41:39;;;;;;;5.50;4.03;;;13.20;99.90;;;13.67;100.00;95310.00;2210678;56;26669;-56
2021/09/26 02:44:35;;;;;;;4.93;4.32;;;13.20;99.90;;;13.65;100.00;95310.00;2433678;55;26664;-57
2021/09/26 02:47:26;;;;;;;5.43;4.37;;;13.20;99.90;;;13.66;100.00;95316.00;2217856;56;26223;-57
2021/09/26 02:50:14;;;;;;;6.05;4.55;;;13.20;99.90;;;13.67;100.00;95324.00;2427354;56;26142;-56
2021/09/26 02:53:02;;;;;;;6.90;4.78;;;13.10;99.90;;;13.59;100.00;95321.00;2210530;56;26234;-56
2021/09/26 02:55:50;;;;;;;6.72;4.85;;;13.00;99.90;;;13.49;100.00;95315.00;2427862;56;26168;-57
2021/09/26 02:58:40;;;;;;;6.25;5.07;;;13.00;99.90;;;13.44;100.00;95324.00;2220476;56;26640;-57
2021/09/26 03:01:27;;;;;;;5.20;4.60;;;12.90;99.90;;;13.31;100.00;95324.00;2433034;55;26222;-57
2021/09/26 03:04:13;;;;;;;5.78;5.18;;;12.80;99.90;;;13.20;100.00;95321.00;2230917;57;26586;-57
2021/09/26 03:06:59;;;;;;;7.60;4.90;;;12.60;99.90;;;13.14;100.00;95324.00;2455528;55;26196;-57
2021/09/26 03:09:46;;;;;;;5.35;4.82;;;12.60;99.90;;;13.07;100.00;95326.00;2240070;56;26146;-57
2021/09/26 03:12:33;;;;;;;7.30;5.12;;;12.50;99.90;;;12.92;100.00;95324.00;2462627;55;26130;-58
2021/09/26 03:15:19;;;;;;;5.47;4.50;;;12.40;99.90;;;12.92;100.00;95320.00;2239598;56;26613;-57
2021/09/26 03:18:06;;;;;;;4.90;4.43;;;12.40;99.90;;;12.94;100.00;95329.00;2462915;55;26201;-57
2021/09/26 03:20:52;;;;;;;4.80;4.30;;;12.40;99.90;;;12.92;100.00;95333.00;2239519;55;26732;-57
2021/09/26 03:23:40;;;;;;;5.75;4.50;;;12.40;99.90;;;12.89;100.00;95324.00;2238294;55;26174;-57
2021/09/26 03:26:26;;;;;;;4.87;4.30;;;12.50;99.90;;;12.91;100.00;95327.00;2462887;55;26146;-57
2021/09/26 03:29:13;;;;;;;8.13;4.97;;;12.40;99.90;;;12.90;100.00;95310.00;2239712;55;26106;-57
2021/09/26 03:31:59;;;;;;;5.62;4.45;;;12.40;99.90;;;12.97;100.00;95307.00;2462950;55;26139;-57
2021/09/26 03:34:46;;;;;;;7.43;4.30;;;12.40;99.90;;;12.89;100.00;95298.00;2238919;55;26151;-57
2021/09/26 03:37:33;;;;;;;6.32;4.40;;;12.40;99.90;;;12.89;100.00;95300.00;2238100;55;26226;-57
2021/09/26 03:43:17;;;;;;;5.03;4.20;;;12.30;99.90;;;12.87;100.00;95280.00;2226881;55;33747;-56
2021/09/26 03:46:03;;;;;;;4.95;4.00;;;12.20;99.90;;;12.72;100.00;95285.00;2245737;56;26132;-57
2021/09/26 03:48:49;;;;;;;6.22;4.40;;;12.20;99.90;;;12.71;100.00;95308.00;2488382;55;26202;-56
2021/09/26 03:51:36;;;;;;;8.17;4.63;;;12.20;99.90;;;12.73;100.00;95298.00;2260041;56;26086;-57
2021/09/26 03:54:23;;;;;;;5.12;4.62;;;12.20;99.90;;;12.67;100.00;95301.00;2488656;55;26149;-57
2021/09/26 03:57:10;;;;;;;4.45;3.97;;;12.10;99.90;;;12.55;100.00;95299.00;2234602;56;26112;-57
2021/09/26 03:59:56;;;;;;;5.80;4.17;;;12.00;99.90;;;12.54;100.00;95298.00;2209167;57;26169;-56
2021/09/26 04:02:43;;;;;;;4.20;3.80;;;12.00;99.90;;;12.52;100.00;95297.00;2413572;56;26125;-57
2021/09/26 04:05:30;;;;;;;7.47;4.87;;;12.00;99.90;;;12.46;100.00;95293.00;2177248;56;26644;-57
2021/09/26 04:08:17;;;;;;;5.07;4.40;;;12.00;99.90;;;12.45;100.00;95285.00;2451667;56;26186;-56
2021/09/26 04:11:03;;;;;;;5.63;4.40;;;11.90;99.90;;;12.42;100.00;95289.00;2234594;56;26286;-56
2021/09/26 04:13:50;;;;;;;7.00;4.40;;;11.90;99.90;;;12.33;100.00;95290.00;2236151;56;26637;-57
2021/09/26 04:16:37;;;;;;;6.07;4.53;;;11.80;99.90;;;12.29;100.00;95289.00;2236462;56;26942;-56
2021/09/26 04:19:23;;;;;;;4.87;4.37;;;11.80;99.90;;;12.26;100.00;95285.00;2459260;56;26274;-57
2021/09/26 04:22:10;;;;;;;4.60;4.20;;;11.80;99.90;;;12.17;100.00;95289.00;2235990;56;26186;-57
2021/09/26 04:24:56;;;;;;;5.10;4.20;;;11.70;99.90;;;12.15;100.00;95282.00;2236164;56;26190;-57
2021/09/26 04:27:43;;;;;;;5.77;4.60;;;11.70;99.90;;;12.14;100.00;95276.00;2458908;56;26788;-56
2021/09/26 04:30:29;;;;;;;6.65;4.35;;;11.60;99.90;;;12.08;100.00;95271.00;2236201;56;26180;-56
2021/09/26 04:33:15;;;;;;;4.70;4.20;;;11.50;99.90;;;12.15;100.00;95256.00;2458744;56;26672;-56
2021/09/26 04:36:02;;;;;;;5.63;4.10;;;11.50;99.90;;;12.04;100.00;95259.00;2236175;56;26586;-57
2021/09/26 04:38:48;;;;;;;5.07;4.23;;;11.60;99.90;;;12.06;100.00;95252.00;2459374;56;26268;-57
2021/09/26 04:41:35;;;;;;;4.10;3.70;;;11.40;99.90;;;11.91;100.00;95256.00;2234487;56;26261;-57
2021/09/26 04:44:21;;;;;;;7.10;4.10;;;11.40;99.90;;;11.87;100.00;95252.00;2234928;56;26241;-57
2021/09/26 04:47:08;;;;;;;5.13;4.63;;;11.40;99.90;;;11.90;100.00;95252.00;2234773;56;26130;-57
2021/09/26 04:49:55;;;;;;;5.70;5.20;;;11.40;99.90;;;11.92;100.00;95240.00;2235024;56;26203;-57
2021/09/26 04:52:41;;;;;;;6.27;5.27;;;11.30;99.90;;;11.95;100.00;95241.00;2234783;56;26590;-56
2021/09/26 04:55:28;;;;;;;7.90;4.60;;;11.30;99.90;;;11.77;100.00;95240.00;2233843;56;26222;-57
2021/09/26 04:58:15;;;;;;;4.63;4.20;;;11.20;99.90;;;11.62;100.00;95241.00;2458036;56;26581;-57
2021/09/26 05:01:01;;;;;;;5.40;4.20;;;11.10;99.90;;;11.57;100.00;95251.00;2235079;56;26243;-57
2021/09/26 05:03:47;;;;;;;4.43;3.97;;;11.10;99.90;;;11.55;100.00;95246.00;2457453;56;26704;-57
2021/09/26 05:06:34;;;;;;;4.90;3.90;;;11.10;99.90;;;11.68;100.00;95253.00;2233912;56;26171;-56
2021/09/26 05:09:20;;;;;;;4.50;3.80;;;11.10;99.90;;;11.65;100.00;95253.00;2234573;56;26171;-57
2021/09/26 05:12:10;;;;;;;4.87;4.07;;;11.10;99.90;;;11.66;100.00;95245.00;2456029;56;26123;-57
2021/09/26 05:15:01;;;;;;;4.40;3.67;;;11.00;99.90;;;11.49;100.00;95257.00;2457814;56;26244;-57
2021/09/26 05:17:48;;;;;;;4.50;4.10;;;11.00;99.90;;;11.45;100.00;95263.00;2234503;56;26775;-58
2021/09/26 05:20:34;;;;;;;4.10;3.70;;;11.00;99.90;;;11.52;100.00;95265.00;2233999;56;26171;-57
2021/09/26 05:23:21;;;;;;;4.57;4.00;;;11.00;99.90;;;11.58;100.00;95259.00;2234616;56;26179;-56
2021/09/26 05:26:08;;;;;;;6.80;4.10;;;11.10;99.90;;;11.71;100.00;95256.00;2235302;56;26255;-56
2021/09/26 05:28:55;;;;;;;4.77;3.70;;;11.30;99.90;;;11.83;100.00;95256.00;2458056;56;26223;-57
2021/09/26 05:31:41;;;;;;;3.90;3.50;;;11.30;99.90;;;11.94;100.00;95263.00;2235547;56;26136;-57
2021/09/26 05:34:29;;;;;;;9.20;3.67;;;11.40;99.90;;;11.97;100.00;95266.00;2457974;56;26170;-57
2021/09/26 05:40:14;;;;;;;4.83;3.60;;;11.60;99.90;;;12.27;100.00;95234.00;2278243;54;33247;-57
2021/09/26 05:43:00;;;;;;;4.33;3.93;;;11.70;99.90;;;12.18;100.00;95251.00;2287777;54;26119;-57
2021/09/26 05:45:48;;;;;;;4.20;3.53;;;11.70;99.90;;;12.30;100.00;95254.00;2521492;54;26607;-56
2021/09/26 05:48:34;;;;;;;4.27;3.70;;;11.80;99.90;;;12.33;100.00;95256.00;2278114;54;26583;-56
2021/09/26 05:51:21;;;;;;;5.17;3.73;;;11.80;99.90;;;12.37;100.00;95250.00;2522126;54;26573;-57
2021/09/26 05:54:08;;;;;;;4.43;3.97;;;11.90;99.90;;;12.44;100.00;95255.00;2279396;54;26078;-57
2021/09/26 05:56:55;;;;;;;6.43;4.60;;;11.90;99.90;;;12.46;100.00;95259.00;2492976;54;26249;-57
2021/09/26 05:59:42;;;;;;;4.73;4.30;;;11.90;99.90;;;12.35;100.00;95252.00;2287633;55;26186;-57
2021/09/26 06:02:29;;;;;;;5.87;4.50;;;11.90;99.90;;;12.37;100.00;95252.00;2287009;55;26121;-57
2021/09/26 06:05:15;;;;;;;4.90;4.40;;;11.90;99.90;;;12.49;100.00;95251.00;2307319;54;26161;-56
2021/09/26 06:08:03;;;;;;;4.53;4.13;;;12.00;99.90;;;12.58;100.00;95252.00;2314678;54;26088;-57
2021/09/26 06:10:49;;;;;;;5.78;5.15;;;12.00;99.90;;;12.64;100.00;95261.00;2313722;54;26234;-56
2021/09/26 06:13:36;;;;;;;4.95;4.45;;;12.10;99.90;;;12.69;100.00;95260.00;2315405;54;26696;-57
2021/09/26 06:16:22;;;;;;;4.35;3.95;;;12.20;99.90;;;12.85;100.00;95257.00;2554860;53;26139;-57
2021/09/26 06:22:07;;;;;;;5.15;3.78;;;12.60;99.90;;;13.42;100.00;95248.00;2217302;57;33487;-56
2021/09/26 06:24:56;;;;;;;4.70;4.20;;;12.80;99.90;;;13.52;100.00;95272.00;2214723;56;26989;-57
2021/09/26 06:27:43;;;;;;;4.40;4.00;;;13.00;99.90;;;13.71;100.00;95263.00;2475597;55;26103;-56
2021/09/26 06:30:29;;;;;;;6.22;4.10;;;13.20;99.90;;;13.89;100.00;95251.00;2226008;56;26124;-57
2021/09/26 06:33:16;;;;;;;5.03;4.05;;;13.30;99.90;;;14.11;100.00;95255.00;2444270;56;26599;-58
2021/09/26 06:36:03;;;;;;;6.10;4.00;;;13.50;99.90;;;14.35;100.00;95247.00;2238033;56;26154;-56
2021/09/26 06:38:49;;;;;;;5.95;3.60;;;13.70;99.90;;;14.54;100.00;95240.00;2426371;56;26129;-56
2021/09/26 06:41:36;;;;;;;6.10;4.05;;;13.90;99.90;;;14.80;100.00;95236.00;2209413;57;26490;-58
2021/09/26 06:44:22;;;;;;;3.90;3.28;;;14.00;99.90;;;14.89;100.00;95241.00;2426805;56;26114;-61
2021/09/26 06:47:08;;;;;;;4.28;3.12;;;14.30;99.90;;;15.14;100.00;95240.00;2210413;57;26679;-57
2021/09/26 06:49:55;;;;;;;5.12;3.55;;;14.50;99.90;;;15.47;100.00;95231.00;2231389;56;26904;-57
2021/09/26 06:52:41;;;;;;;4.30;3.80;;;15.00;99.90;;;16.18;100.00;95228.00;2458202;56;26634;-57
2021/09/26 06:55:28;;;;;;;3.65;3.33;;;15.40;99.90;;;16.80;100.00;95222.00;2235023;56;26184;-58
2021/09/26 06:58:14;;;;;;;4.57;3.00;;;16.20;99.90;;;18.00;100.00;95213.00;2457507;56;26188;-57
2021/09/26 07:01:00;;;;;;;3.47;3.17;;;16.90;99.90;;;19.05;100.00;95212.00;2234242;56;26602;-57
2021/09/26 07:03:47;;;;;;;5.25;3.90;;;17.20;99.90;;;19.10;100.00;95205.00;2428387;56;26137;-57
2021/09/26 07:06:33;;;;;;;5.40;3.40;;;17.50;99.90;;;19.39;100.00;95207.00;2210817;56;26617;-57
2021/09/26 07:12:18;;;;;;;3.47;3.17;;;17.70;99.90;;;18.76;100.00;95203.00;2267577;54;33334;-56
2021/09/26 07:18:01;;;;;;;5.70;3.12;;;17.10;99.90;;;17.82;100.00;95214.00;2240406;56;32787;-57
2021/09/26 07:20:47;;;;;;;4.22;2.95;;;16.50;99.90;;;17.43;100.00;95214.00;2467292;55;26109;-56
2021/09/26 07:23:33;;;;;;;5.10;3.47;;;16.50;99.90;;;17.51;100.00;95208.00;2265143;55;26183;-57
2021/09/26 07:26:20;;;;;;;3.45;3.15;;;16.60;99.90;;;17.71;100.00;95215.00;2508203;55;26111;-57
2021/09/26 07:29:06;;;;;;;3.37;2.60;;;17.10;99.90;;;18.50;100.00;95207.00;2288496;55;26207;-57
2021/09/26 07:31:52;;;;;;;5.62;3.03;;;18.00;99.90;;;19.63;100.00;95197.00;2527399;55;26154;-57
2021/09/26 07:34:39;;;;;;;3.45;2.90;;;18.80;99.90;;;20.75;100.00;95198.00;2292627;55;26154;-57
2021/09/26 07:37:25;;;;;;;3.05;2.70;;;19.30;99.90;;;21.36;100.00;95195.00;2527391;55;26158;-56
2021/09/26 07:40:12;;;;;;;4.03;2.75;;;19.50;99.90;;;21.45;100.00;95192.00;2292817;55;26653;-56
2021/09/26 07:42:59;;;;;;;2.40;2.20;;;20.20;99.90;;;22.35;100.00;95187.00;2526959;55;26182;-56
2021/09/26 07:45:45;;;;;;;3.92;2.58;;;20.80;99.90;;;23.15;100.00;95194.00;2292297;55;26526;-57
2021/09/26 07:48:31;;;;;;;4.72;2.55;;;21.10;99.90;;;23.50;100.00;95187.00;2292608;55;26196;-57
2021/09/26 07:51:18;;;;;;;4.05;2.60;;;22.10;99.90;;;24.84;100.00;95177.00;2527449;55;26116;-57
2021/09/26 07:54:05;;;;;;;2.62;2.40;;;23.10;99.90;;;25.94;100.00;95172.00;2292059;55;26655;-55
2021/09/26 07:56:51;;;;;;;5.45;3.10;;;24.20;99.90;;;27.39;100.00;95165.00;2290719;55;26216;-55
2021/09/26 07:59:40;;;;;;;5.43;2.65;;;24.80;99.90;;;28.48;100.00;95164.00;2291137;55;26139;-55
2021/09/26 08:02:27;;;;;;;3.70;2.37;;;25.50;99.90;;;29.37;100.00;95167.00;2291122;55;26764;-55
2021/09/26 08:05:14;;;;;;;3.78;2.55;;;26.00;99.90;;;29.20;96.63;95168.00;2291191;55;25200;-56
2021/09/26 08:08:00;;;;;;;2.65;2.33;;;25.70;99.90;;;29.28;95.96;95154.00;2290784;55;26224;-55
2021/09/26 08:10:47;;;;;;;3.78;2.33;;;26.00;99.90;;;29.64;94.99;95158.00;2291516;55;27352;-56
2021/09/26 08:13:34;;;;;;;4.62;2.47;;;25.80;99.90;;;29.29;95.67;95162.00;2291004;55;25103;-56
2021/09/26 08:16:20;;;;;;;5.25;2.42;;;25.80;99.90;;;28.89;99.83;95166.00;2527348;55;26563;-55
2021/09/26 08:19:06;;;;;;;2.55;2.05;;;25.90;99.90;;;29.18;98.96;95160.00;2292114;55;25212;-56
2021/09/26 08:21:53;;;;;;;4.10;2.20;;;26.30;99.90;;;29.88;97.89;95153.00;2527260;55;25573;-56
2021/09/26 08:24:40;;;;;;;2.83;2.10;;;27.10;99.90;;;30.23;93.28;95152.00;2292868;55;25072;-55
2021/09/26 08:27:26;;;;;;;4.20;2.20;;;27.60;99.90;;;30.29;92.73;95151.00;2526852;55;25092;-55
2021/09/26 08:30:14;;;;;;;5.03;2.55;;;27.60;99.90;;;30.62;93.16;95148.00;2291541;55;25132;-56
2021/09/26 08:33:00;;;;;;;5.43;2.20;;;28.20;99.90;;;31.45;81.84;95149.00;2525973;55;25064;-56
2021/09/26 08:38:45;;;;;;;3.85;2.33;;;28.60;99.90;;;30.53;81.54;95145.00;2305315;54;32050;-55
2021/09/26 08:41:32;;;;;;;7.50;2.60;;;28.30;99.90;;;30.68;91.80;95151.00;2553915;54;25098;-56
2021/09/26 08:44:20;;;;;;;4.15;2.30;;;29.20;99.90;;;32.94;72.26;95149.00;2554167;54;25091;-56
2021/09/26 08:47:07;;;;;;;4.07;2.50;;;29.00;99.90;;;32.23;76.52;95159.00;2314549;54;25187;-56
2021/09/26 08:49:54;;;;;;;5.37;2.53;;;27.80;99.90;;;30.18;87.88;95159.00;2554580;53;25073;-56
2021/09/26 08:52:42;;;;;;;3.70;2.40;;;26.90;99.90;;;28.44;97.32;95169.00;2314975;54;25527;-56
2021/09/26 08:55:28;;;;;;;3.12;2.35;;;25.60;99.90;;;27.15;100.00;95162.00;2554436;53;25070;-56
2021/09/26 08:58:17;;;;;;;4.85;2.37;;;25.20;99.90;;;26.85;100.00;95170.00;2288489;56;26178;-56
2021/09/26 09:01:03;;;;;;;3.90;2.40;;;25.30;99.90;;;27.54;100.00;95165.00;2530530;54;26587;-55
2021/09/26 09:03:50;;;;;;;5.50;2.70;;;25.70;99.90;;;28.51;100.00;95161.00;2268462;56;26075;-56
2021/09/26 09:06:42;;;;;;;5.75;2.30;;;25.60;99.90;;;28.06;100.00;95154.00;2263726;55;26091;-56
2021/09/26 09:09:28;;;;;;;4.53;2.12;;;25.30;99.90;;;27.45;100.00;95156.00;2263846;55;26138;-56
2021/09/26 09:12:15;;;;;;;5.60;2.50;;;25.00;99.90;;;27.02;100.00;95160.00;2263072;55;26143;-56
2021/09/26 09:15:07;;;;;;;5.28;2.50;;;25.40;99.90;;;27.48;100.00;95158.00;2491953;55;26145;-56
2021/09/26 09:18:03;;;;;;;5.57;2.75;;;25.70;99.90;;;28.17;100.00;95156.00;2492005;55;26163;-56
2021/09/26 09:23:48;;;;;;;4.65;2.28;;;26.60;99.90;;;29.70;100.00;95164.00;2249317;54;33265;-57
2021/09/26 09:26:37;;;;;;;5.80;2.33;;;27.50;99.90;;;30.19;100.00;95162.00;2228182;56;26203;-57
2021/09/26 09:29:25;;;;;;;4.40;2.60;;;28.20;99.90;;;31.17;100.00;95172.00;2451309;55;26528;-56
2021/09/26 09:32:19;;;;;;;3.28;2.30;;;29.20;99.90;;;32.84;87.93;95163.00;2261564;56;25057;-56
2021/09/26 09:35:19;;;;;;;4.45;2.50;;;30.20;99.90;;;33.83;81.51;95149.00;2251924;56;25076;-55
2021/09/26 09:38:06;;;;;;;3.47;2.60;;;30.30;99.90;;;33.50;76.81;95160.00;2454131;56;26023;-55
2021/09/26 09:40:52;;;;;;;5.22;2.47;;;30.50;99.90;;;33.96;78.74;95159.00;2232652;56;25130;-54
2021/09/26 09:43:48;;;;;;;4.07;2.35;;;30.10;99.90;;;32.99;81.39;95160.00;2454805;56;25157;-55
2021/09/26 09:46:37;;;;;;;6.43;2.55;;;29.20;99.90;;;31.35;90.08;95159.00;2232697;56;25150;-54
2021/09/26 09:49:25;;;;;;;7.12;2.45;;;28.10;99.90;;;29.66;100.00;95158.00;2257165;56;25493;-54
2021/09/26 09:52:11;;;;;;;6.60;2.30;;;27.10;99.90;;;28.35;100.00;95163.00;2262156;56;26553;-54
2021/09/26 09:54:58;;;;;;;6.45;2.30;;;26.30;99.90;;;27.52;100.00;95164.00;2484576;55;25134;-55
2021/09/26 09:57:44;;;;;;;4.85;2.00;;;26.00;99.90;;;27.11;100.00;95171.00;2280171;55;26623;-55
2021/09/26 10:00:32;;;;;;;4.90;2.12;;;25.50;99.90;;;26.51;100.00;95176.00;2521734;54;25653;-54
2021/09/26 10:06:45;;;;;;;5.28;2.40;;;24.80;99.90;;;26.02;100.00;95186.00;2225179;56;33757;-56
2021/09/26 10:09:33;;;;;;;3.22;2.20;;;24.70;99.90;;;25.78;100.00;95184.00;2234320;56;26176;-56
2021/09/26 10:12:25;;;;;;;4.12;2.35;;;24.60;99.90;;;25.63;100.00;95182.00;2451948;56;26158;-56
2021/09/26 10:15:12;;;;;;;4.45;2.62;;;24.60;99.90;;;25.50;100.00;95185.00;2448719;55;26484;-57
2021/09/26 10:17:59;;;;;;;3.90;2.22;;;24.50;99.90;;;25.33;100.00;95188.00;2239327;57;26113;-56
2021/09/26 10:20:45;;;;;;;4.97;2.45;;;24.30;99.90;;;25.16;100.00;95187.00;2234011;57;26537;-57
2021/09/26 10:23:32;;;;;;;3.50;2.30;;;24.20;99.90;;;25.00;100.00;95186.00;2458405;55;26089;-56
2021/09/26 10:26:24;;;;;;;4.65;2.40;;;24.10;99.90;;;24.96;100.00;95183.00;2224740;55;26176;-56
2021/09/26 10:29:12;;;;;;;4.72;2.33;;;24.00;99.90;;;24.85;100.00;95175.00;2264299;55;26148;-56
2021/09/26 10:31:59;;;;;;;5.40;2.30;;;24.10;99.90;;;24.99;100.00;95172.00;2265316;55;26099;-56
2021/09/26 10:34:46;;;;;;;3.75;2.30;;;24.30;99.90;;;25.34;100.00;95168.00;2494530;55;26147;-56
2021/09/26 10:37:32;;;;;;;6.28;2.55;;;24.50;99.90;;;25.66;100.00;95162.00;2265359;55;26693;-56
2021/09/26 10:40:19;;;;;;;6.62;2.85;;;25.10;99.90;;;26.72;100.00;95164.00;2494625;55;26519;-56
2021/09/26 10:43:20;;;;;;;5.00;2.30;;;26.30;99.90;;;28.51;100.00;95161.00;2265126;55;25044;-57
2021/09/26 10:46:26;;;;;;;7.15;2.67;;;26.80;99.90;;;28.91;100.00;95149.00;2265376;55;25059;-57
2021/09/26 10:49:15;;;;;;;10.43;2.40;;;26.30;99.90;;;27.33;100.00;95150.00;2256601;56;26181;-56
2021/09/26 10:52:02;;;;;;;2.58;2.30;;;26.00;99.90;;;27.08;100.00;95151.00;2488975;55;26142;-57
2021/09/26 10:54:48;;;;;;;7.53;2.33;;;25.90;99.90;;;27.24;100.00;95147.00;2240385;55;26594;-56
2021/09/26 10:57:34;;;;;;;5.68;2.30;;;25.70;99.90;;;26.75;100.00;95144.00;2239924;55;26115;-57
2021/09/26 11:00:33;;;;;;;4.45;2.40;;;25.40;99.90;;;26.42;100.00;95144.00;2240050;55;26173;-57
2021/09/26 11:03:22;;;;;;;22.42;5.53;;;25.20;99.90;;;25.93;100.00;95157.00;2463912;55;26109;-56
2021/09/26 11:09:20;;;;;;;7.70;3.08;;;24.80;99.90;;;25.88;100.00;95150.00;2282964;55;33725;-57
2021/09/26 11:12:08;;;;;;;6.35;2.85;;;24.80;99.90;;;25.77;100.00;95148.00;2521777;54;26613;-57
2021/09/26 11:15:09;;;;;;;5.10;2.35;;;25.80;99.90;;;27.84;100.00;95146.00;2266675;55;26072;-56
2021/09/26 11:17:58;;;;;;;5.07;2.37;;;27.90;99.90;;;31.03;100.00;95147.00;2268066;55;25147;-57
2021/09/26 11:20:44;;;;;;;7.65;2.85;;;28.90;99.90;;;31.71;84.93;95143.00;2497144;54;26590;-57
2021/09/26 11:23:35;;;;;;;5.10;2.60;;;29.60;99.90;;;32.39;77.89;95138.00;2245618;57;25476;-57
2021/09/26 11:26:21;;;;;;;7.25;2.83;;;30.40;99.90;;;33.24;73.27;95146.00;2505518;54;25115;-56
2021/09/26 11:29:07;;;;;;;4.10;2.30;;;31.40;99.90;;;34.35;64.23;95165.00;2282742;55;26767;-57
2021/09/26 11:31:55;;;;;;;4.45;2.62;;;31.50;99.90;;;34.61;64.97;95167.00;2293973;55;25190;-56
2021/09/26 11:34:44;;;;;;;3.78;2.60;;;31.90;99.90;;;35.22;57.51;95166.00;2529295;54;25550;-57
2021/09/26 11:37:50;;;;;;;4.12;2.30;;;31.90;99.90;;;34.72;58.34;95161.00;2294221;55;25094;-56
2021/09/26 11:44:24;;;;;;;5.93;2.65;;;30.80;99.90;;;33.36;58.61;95132.00;2280031;55;32260;-57
2021/09/26 11:47:14;;;;;;;3.15;2.30;;;30.70;99.90;;;32.70;64.43;95142.00;2522278;54;25130;-56
2021/09/26 11:50:05;;;;;;;5.97;2.53;;;30.70;99.90;;;33.04;62.34;95147.00;2522203;54;25098;-57
2021/09/26 11:52:54;;;;;;;3.87;2.55;;;30.40;99.90;;;32.21;65.74;95139.00;2283306;55;25429;-56
2021/09/26 11:55:42;;;;;;;3.35;2.35;;;29.60;99.90;;;30.94;67.10;95132.00;2525813;54;25180;-57
2021/09/26 11:58:29;;;;;;;3.92;2.30;;;29.00;99.90;;;30.30;84.27;95131.00;2283265;54;25041;-57
2021/09/26 12:01:26;;;;;;;3.80;2.40;;;28.70;99.90;;;30.11;83.75;95132.00;2288327;55;26535;-57
2021/09/26 12:04:19;;;;;;;5.03;2.53;;;28.40;99.90;;;29.69;85.88;95127.00;2266983;55;26952;-57
2021/09/26 12:07:07;;;;;;;5.10;2.53;;;27.60;99.90;;;28.49;94.18;95127.00;2489945;54;25101;-56
2021/09/26 12:09:53;;;;;;;6.47;2.60;;;26.90;99.90;;;27.59;100.00;95124.00;2261857;55;25101;-57
2021/09/26 12:12:39;;;;;;;8.55;3.10;;;26.20;99.90;;;27.06;100.00;95123.00;2443355;55;26184;-57
2021/09/26 12:15:28;;;;;;;5.15;2.55;;;26.00;99.90;;;26.93;100.00;95124.00;2488829;55;25103;-56
2021/09/26 12:18:23;;;;;;;6.85;2.65;;;26.20;99.90;;;27.18;100.00;95122.00;2260602;56;26544;-57
2021/09/26 12:24:14;;;;;;;8.27;2.60;;;26.40;99.90;;;27.39;100.00;95116.00;2256869;54;34073;-56
2021/09/26 12:27:12;;;;;;;6.37;2.50;;;26.20;99.90;;;27.13;100.00;95121.00;2236045;55;26161;-57
2021/09/26 12:30:06;;;;;;;4.68;2.40;;;26.30;99.90;;;27.37;100.00;95113.00;2236513;56;26227;-58
2021/09/26 12:32:55;;;;;;;4.45;2.50;;;26.70;99.90;;;27.72;100.00;95116.00;2473778;55;26133;-56